Time;durP1;ratioP1;P1;durP2;ratioP2;P2;SDS_P1;SDS_P2;PMS_P1;PMS_P2;Temp;Humidity;BMP_temperature;BMP_pressure;BME280_temperature;BME280_humidity;BME280_pressure;Samples;Min_cycle;Max_cycle;Signal;HPM_P1;HPM_P2
2024/04/04 00:01:27;;;;;;;23.60;8.10;;;10.30;99.90;;;;;;5012213;28;20160;-74
2024/04/04 00:03:53;;;;;;;18.30;6.85;;;10.30;99.90;;;;;;5013004;28;20072;-71
2024/04/04 00:06:19;;;;;;;14.73;6.35;;;10.30;99.90;;;;;;5012180;28;20026;-73
2024/04/04 00:08:44;;;;;;;16.42;6.35;;;10.30;99.90;;;;;;5014614;28;20404;-72
2024/04/04 00:11:11;;;;;;;15.48;6.10;;;10.30;99.90;;;;;;5017675;28;20101;-74
2024/04/04 00:13:37;;;;;;;14.68;6.40;;;10.30;99.90;;;;;;5012279;28;20036;-73
2024/04/04 00:16:03;;;;;;;11.18;5.47;;;10.30;99.90;;;;;;5011002;28;20026;-73
2024/04/04 00:18:29;;;;;;;16.55;5.82;;;10.30;99.90;;;;;;5010040;28;20030;-72
2024/04/04 00:20:54;;;;;;;10.52;4.80;;;10.20;99.90;;;;;;5011156;28;20034;-71
2024/04/04 00:23:20;;;;;;;15.02;5.65;;;10.20;99.90;;;;;;5013004;28;20034;-73
2024/04/04 00:25:47;;;;;;;11.43;5.00;;;10.20;99.90;;;;;;5011278;28;20032;-72
2024/04/04 00:28:12;;;;;;;11.02;5.22;;;10.20;99.90;;;;;;5011773;28;20026;-73
2024/04/04 00:30:38;;;;;;;10.70;5.45;;;10.30;99.90;;;;;;5013319;28;20512;-72
2024/04/04 00:33:04;;;;;;;13.13;4.95;;;10.30;99.90;;;;;;5012315;28;20053;-71
2024/04/04 00:35:30;;;;;;;8.18;4.72;;;10.20;99.90;;;;;;5011377;28;20029;-73
2024/04/04 00:37:55;;;;;;;13.88;5.35;;;10.20;99.90;;;;;;5012114;28;20029;-74
2024/04/04 00:40:21;;;;;;;10.07;4.93;;;10.20;99.90;;;;;;5010834;28;20761;-73
2024/04/04 00:42:50;;;;;;;11.68;4.28;;;10.20;99.90;;;;;;5011191;28;20114;-72
2024/04/04 00:45:16;;;;;;;16.88;5.32;;;10.20;99.90;;;;;;5012038;28;20554;-72
2024/04/04 00:47:45;;;;;;;10.60;4.20;;;10.20;99.90;;;;;;5011143;28;20022;-71
2024/04/04 00:50:12;;;;;;;15.00;5.25;;;10.20;99.90;;;;;;5014376;28;20061;-72
2024/04/04 00:52:38;;;;;;;10.18;4.63;;;10.20;99.90;;;;;;5014891;28;20034;-72
2024/04/04 00:55:06;;;;;;;13.48;4.95;;;10.20;99.90;;;;;;5017196;28;20037;-73
2024/04/04 00:57:32;;;;;;;10.63;4.68;;;10.20;99.90;;;;;;5016649;28;20022;-72
2024/04/04 00:59:58;;;;;;;15.38;4.63;;;10.20;99.90;;;;;;5014478;28;20041;-71
2024/04/04 01:02:24;;;;;;;13.73;4.93;;;10.10;99.90;;;;;;5014765;28;20034;-71
2024/04/04 01:04:49;;;;;;;14.95;5.25;;;10.20;99.90;;;;;;5014539;28;20049;-72
2024/04/04 01:07:17;;;;;;;11.82;5.03;;;10.10;99.90;;;;;;5015296;28;20038;-72
2024/04/04 01:09:43;;;;;;;13.88;4.93;;;10.20;99.90;;;;;;5013746;28;20037;-71
2024/04/04 01:12:08;;;;;;;13.77;4.80;;;10.20;99.90;;;;;;5015420;28;20030;-71
2024/04/04 01:14:34;;;;;;;11.35;4.45;;;10.10;99.90;;;;;;5013934;28;20052;-72
2024/04/04 01:17:00;;;;;;;17.67;5.20;;;10.20;99.90;;;;;;5015089;28;20021;-71
2024/04/04 01:19:26;;;;;;;12.73;5.15;;;10.20;99.90;;;;;;5015307;28;20085;-73
2024/04/04 01:21:52;;;;;;;13.77;4.30;;;10.20;99.90;;;;;;5014117;28;20026;-71
2024/04/04 01:24:17;;;;;;;13.40;5.28;;;10.20;99.90;;;;;;5015660;28;20069;-73
2024/04/04 01:26:43;;;;;;;16.55;4.85;;;10.10;99.90;;;;;;5015342;28;20034;-72
2024/04/04 01:29:08;;;;;;;12.38;4.63;;;10.10;99.90;;;;;;5013832;28;20491;-69
2024/04/04 01:31:34;;;;;;;18.88;5.13;;;10.20;99.90;;;;;;5014885;28;20054;-71
2024/04/04 01:33:59;;;;;;;11.27;4.72;;;10.20;99.90;;;;;;5015157;28;20030;-70
2024/04/04 01:36:25;;;;;;;11.05;4.30;;;10.20;99.90;;;;;;5015099;28;20120;-70
2024/04/04 01:38:51;;;;;;;14.05;4.53;;;10.10;99.90;;;;;;5013687;28;20025;-74
2024/04/04 01:41:17;;;;;;;13.77;4.93;;;10.10;99.90;;;;;;5015142;28;20053;-73
2024/04/04 01:43:42;;;;;;;14.70;4.38;;;10.10;99.90;;;;;;5014695;28;20091;-71
2024/04/04 01:46:09;;;;;;;14.50;5.15;;;10.10;99.90;;;;;;5014426;28;20546;-71
2024/04/04 01:48:35;;;;;;;11.80;5.10;;;10.10;99.90;;;;;;5014861;28;20033;-73
2024/04/04 01:51:00;;;;;;;17.20;5.32;;;10.10;99.90;;;;;;5014712;28;20038;-71
2024/04/04 01:53:26;;;;;;;14.80;4.80;;;10.10;99.90;;;;;;5014596;28;20014;-72
2024/04/04 01:55:58;;;;;;;13.27;4.82;;;10.10;99.90;;;;;;5016009;28;20406;-70
2024/04/04 01:58:24;;;;;;;14.50;4.93;;;10.10;99.90;;;;;;5014785;28;20048;-73
2024/04/04 02:00:49;;;;;;;17.45;4.53;;;10.10;99.90;;;;;;5012201;28;20053;-73
2024/04/04 02:03:15;;;;;;;18.42;5.10;;;10.20;99.90;;;;;;5014461;28;20053;-72
2024/04/04 02:05:41;;;;;;;12.55;5.00;;;10.20;99.90;;;;;;5014138;28;20045;-71
2024/04/04 02:08:07;;;;;;;12.00;5.32;;;10.20;99.90;;;;;;5013185;28;20044;-71
2024/04/04 02:10:33;;;;;;;11.30;4.50;;;10.10;99.90;;;;;;5019827;28;20129;-70
2024/04/04 02:12:59;;;;;;;15.18;4.47;;;10.10;99.90;;;;;;5017106;28;20029;-69
2024/04/04 02:15:26;;;;;;;12.55;4.55;;;10.10;99.90;;;;;;5013798;28;20038;-69
2024/04/04 02:17:52;;;;;;;17.63;4.93;;;10.10;99.90;;;;;;5014190;28;20121;-72
2024/04/04 02:20:18;;;;;;;11.77;4.50;;;10.10;99.90;;;;;;5014076;28;20034;-71
2024/04/04 02:22:43;;;;;;;11.43;4.10;;;10.10;99.90;;;;;;5014160;28;20157;-70
2024/04/04 02:25:10;;;;;;;12.80;4.63;;;10.10;99.90;;;;;;5013602;28;20080;-72
2024/04/04 02:27:36;;;;;;;13.05;4.63;;;10.10;99.90;;;;;;5014504;28;20097;-70
2024/04/04 02:30:02;;;;;;;18.42;4.60;;;10.10;99.90;;;;;;5014804;28;20104;-74
2024/04/04 02:32:28;;;;;;;13.73;4.57;;;10.10;99.90;;;;;;5013434;28;20122;-71
2024/04/04 02:34:57;;;;;;;13.45;4.32;;;10.10;99.90;;;;;;5014012;28;20020;-72
2024/04/04 02:37:23;;;;;;;15.88;4.65;;;10.00;99.90;;;;;;5013073;28;20059;-72
2024/04/04 02:39:49;;;;;;;16.73;4.65;;;10.10;99.90;;;;;;5012554;28;20056;-73
2024/04/04 02:42:14;;;;;;;12.95;4.63;;;10.10;99.90;;;;;;5013903;28;20057;-73
2024/04/04 02:44:40;;;;;;;14.73;4.47;;;10.10;99.90;;;;;;5013628;28;20046;-71
2024/04/04 02:47:06;;;;;;;11.38;4.57;;;10.10;99.90;;;;;;5013527;28;20018;-72
2024/04/04 02:49:31;;;;;;;14.15;4.20;;;10.00;99.90;;;;;;5013656;28;20085;-75
2024/04/04 02:51:57;;;;;;;8.23;4.00;;;10.10;99.90;;;;;;5012315;28;20086;-73
2024/04/04 02:54:23;;;;;;;12.25;4.18;;;10.00;99.90;;;;;;5013531;28;20025;-72
2024/04/04 02:56:49;;;;;;;11.70;4.47;;;10.00;99.90;;;;;;5013536;28;20036;-72
2024/04/04 02:59:15;;;;;;;12.75;4.50;;;10.00;99.90;;;;;;5011681;28;20038;-73
2024/04/04 03:01:41;;;;;;;13.73;4.20;;;10.00;99.90;;;;;;5012871;28;20053;-73
2024/04/04 03:04:07;;;;;;;11.98;4.53;;;10.00;99.90;;;;;;5012809;28;20414;-71
2024/04/04 03:06:34;;;;;;;13.18;3.67;;;10.00;99.90;;;;;;5011945;28;20607;-70
2024/04/04 03:09:00;;;;;;;13.70;4.00;;;9.90;99.90;;;;;;5012651;28;20026;-72
2024/04/04 03:11:26;;;;;;;10.70;4.13;;;10.00;99.90;;;;;;5013185;28;20041;-74
2024/04/04 03:13:52;;;;;;;12.73;3.80;;;9.90;99.90;;;;;;5013022;28;20030;-75
2024/04/04 03:16:17;;;;;;;12.15;4.10;;;9.90;99.90;;;;;;5012901;28;20105;-71
2024/04/04 03:18:43;;;;;;;11.93;3.95;;;9.90;99.90;;;;;;5013033;28;20034;-72
2024/04/04 03:21:09;;;;;;;10.88;4.53;;;9.80;99.90;;;;;;5013340;28;20025;-72
2024/04/04 03:23:34;;;;;;;13.50;3.75;;;9.80;99.90;;;;;;5012809;28;20034;-72
2024/04/04 03:26:00;;;;;;;12.68;4.00;;;9.80;99.90;;;;;;5012973;28;20030;-70
2024/04/04 03:28:25;;;;;;;14.25;4.53;;;9.70;99.90;;;;;;5014154;28;20052;-72
2024/04/04 03:30:51;;;;;;;13.35;3.60;;;9.70;99.90;;;;;;5013300;28;20042;-73
2024/04/04 03:33:16;;;;;;;12.40;3.60;;;9.70;99.90;;;;;;5013914;28;20026;-73
2024/04/04 03:35:42;;;;;;;8.15;3.35;;;9.70;99.90;;;;;;5014005;28;20474;-74
2024/04/04 03:38:08;;;;;;;9.02;3.67;;;9.70;99.90;;;;;;5012262;28;20034;-73
2024/04/04 03:40:33;;;;;;;18.55;4.20;;;9.60;99.90;;;;;;5010824;28;20396;-74
2024/04/04 03:43:02;;;;;;;9.25;3.67;;;9.60;99.90;;;;;;5010540;28;20018;-72
2024/04/04 03:45:28;;;;;;;11.10;3.58;;;9.60;99.90;;;;;;5011520;28;20030;-74
2024/04/04 03:47:53;;;;;;;9.43;3.28;;;9.60;99.90;;;;;;5012732;28;20382;-72
2024/04/04 03:50:19;;;;;;;13.25;3.47;;;9.50;99.90;;;;;;5012555;28;20046;-73
2024/04/04 03:52:45;;;;;;;10.93;3.53;;;9.50;99.90;;;;;;5010828;28;20077;-73
2024/04/04 03:55:11;;;;;;;15.13;3.80;;;9.50;99.90;;;;;;5012686;28;20030;-72
2024/04/04 03:57:37;;;;;;;9.00;3.22;;;9.50;99.90;;;;;;5014542;28;20026;-74
2024/04/04 04:00:06;;;;;;;13.63;3.80;;;9.40;99.90;;;;;;5012534;28;20030;-73
2024/04/04 04:02:32;;;;;;;11.57;3.58;;;9.40;99.90;;;;;;5013196;28;20022;-72
2024/04/04 04:04:57;;;;;;;16.15;4.80;;;9.40;99.90;;;;;;5011740;28;20113;-73
2024/04/04 04:07:23;;;;;;;12.80;4.13;;;9.30;99.90;;;;;;5012158;28;20041;-73
2024/04/04 04:09:48;;;;;;;15.85;5.20;;;9.30;99.90;;;;;;5013396;28;20041;-73
2024/04/04 04:12:14;;;;;;;12.65;4.10;;;9.30;99.90;;;;;;5013904;28;20033;-73
2024/04/04 04:14:39;;;;;;;11.02;3.75;;;9.20;99.90;;;;;;5012687;28;20060;-76
2024/04/04 04:17:05;;;;;;;9.52;3.55;;;9.20;99.90;;;;;;5013370;28;20463;-75
2024/04/04 04:19:30;;;;;;;11.70;3.20;;;9.10;99.90;;;;;;5012844;28;20018;-76
2024/04/04 04:21:56;;;;;;;17.35;3.42;;;9.10;99.90;;;;;;5009081;28;20022;-77
2024/04/04 04:24:22;;;;;;;6.47;3.20;;;9.10;99.90;;;;;;5011950;28;20018;-74
2024/04/04 04:26:49;;;;;;;14.73;3.15;;;9.00;99.90;;;;;;5011848;28;20418;-76
2024/04/04 04:29:17;;;;;;;12.70;3.42;;;9.10;99.90;;;;;;5010894;28;20058;-75
2024/04/04 04:31:44;;;;;;;15.48;3.95;;;9.00;99.90;;;;;;5011878;28;20041;-75
2024/04/04 04:34:09;;;;;;;14.70;3.03;;;8.90;99.90;;;;;;5013057;28;20458;-73
2024/04/04 04:36:54;;;;;;;7.28;2.90;;;8.90;99.90;;;;;;5011336;28;20030;-77
2024/04/04 04:39:20;;;;;;;15.95;2.80;;;8.90;99.90;;;;;;5010458;28;20030;-75
2024/04/04 04:41:45;;;;;;;10.85;2.60;;;8.90;99.90;;;;;;5012401;28;20029;-75
2024/04/04 04:44:11;;;;;;;9.48;2.47;;;8.90;99.90;;;;;;5011012;28;20032;-76
2024/04/04 04:46:36;;;;;;;8.27;2.33;;;8.90;99.90;;;;;;5011868;28;20030;-75
2024/04/04 04:49:02;;;;;;;11.23;2.70;;;8.80;99.90;;;;;;5012029;28;20045;-76
2024/04/04 04:51:28;;;;;;;12.25;2.35;;;8.80;99.90;;;;;;5013119;28;20041;-77
2024/04/04 04:53:53;;;;;;;12.80;2.60;;;8.80;99.90;;;;;;5011738;28;20030;-77
2024/04/04 04:56:19;;;;;;;10.90;2.58;;;8.80;99.90;;;;;;5011866;28;20022;-76
2024/04/04 04:58:44;;;;;;;11.93;3.03;;;8.80;99.90;;;;;;5010938;28;20049;-74
2024/04/04 05:01:10;;;;;;;7.03;2.25;;;8.70;99.90;;;;;;5014285;28;20439;-74
2024/04/04 05:03:36;;;;;;;11.95;2.40;;;8.70;99.90;;;;;;5015774;28;20057;-75
2024/04/04 05:06:02;;;;;;;10.90;2.33;;;8.70;99.90;;;;;;5014430;28;20018;-75
2024/04/04 05:08:27;;;;;;;16.08;2.63;;;8.70;99.90;;;;;;5008862;28;20102;-75
2024/04/04 05:10:53;;;;;;;6.63;2.35;;;8.70;99.90;;;;;;5012524;28;20093;-76
2024/04/04 05:13:18;;;;;;;9.50;2.75;;;8.70;99.90;;;;;;5010625;28;20026;-76
2024/04/04 05:16:03;;;;;;;11.18;2.33;;;8.60;99.90;;;;;;5011785;28;20022;-75
2024/04/04 05:18:29;;;;;;;8.88;2.30;;;8.60;99.90;;;;;;5009999;28;20029;-75
2024/04/04 05:21:01;;;;;;;10.32;2.17;;;8.60;99.90;;;;;;5010006;28;20036;-75
2024/04/04 05:23:27;;;;;;;9.93;2.22;;;8.60;99.90;;;;;;5010706;28;20048;-76
2024/04/04 05:25:53;;;;;;;9.82;1.83;;;8.70;99.90;;;;;;5011817;28;20030;-76
2024/04/04 05:28:20;;;;;;;7.10;2.15;;;8.60;99.90;;;;;;5010060;28;20022;-78
2024/04/04 05:30:46;;;;;;;10.63;1.65;;;8.60;99.90;;;;;;5009678;28;20043;-77
2024/04/04 05:33:11;;;;;;;8.60;2.15;;;8.60;99.90;;;;;;5010786;28;20022;-77
2024/04/04 05:35:37;;;;;;;8.50;2.35;;;8.60;99.90;;;;;;5011783;28;20029;-76
2024/04/04 05:38:03;;;;;;;9.40;2.13;;;8.70;99.90;;;;;;5014933;28;20026;-77
2024/04/04 05:40:28;;;;;;;6.45;1.80;;;8.70;99.90;;;;;;5013525;28;20024;-77
2024/04/04 05:42:54;;;;;;;8.13;1.67;;;8.70;99.90;;;;;;5014708;28;20084;-80
2024/04/04 05:45:20;;;;;;;7.97;1.88;;;8.70;99.90;;;;;;5014694;28;20052;-75
2024/04/04 05:47:46;;;;;;;10.73;2.40;;;8.70;99.90;;;;;;5014725;28;20029;-77
2024/04/04 05:50:11;;;;;;;8.85;2.35;;;8.70;99.90;;;;;;5016408;28;20046;-76
2024/04/04 05:52:37;;;;;;;6.72;2.13;;;8.80;99.90;;;;;;5014358;28;20041;-78
2024/04/04 05:55:03;;;;;;;6.93;1.92;;;8.90;99.90;;;;;;5015659;28;20028;-76
2024/04/04 05:57:29;;;;;;;8.45;1.92;;;8.90;99.90;;;;;;5015441;28;20027;-77
2024/04/04 05:59:55;;;;;;;7.53;1.70;;;8.90;99.90;;;;;;5013626;28;20514;-76
2024/04/04 06:02:21;;;;;;;7.68;2.00;;;9.00;99.90;;;;;;5015023;28;20083;-75
2024/04/04 06:04:46;;;;;;;6.80;1.67;;;9.00;99.90;;;;;;5011989;28;20066;-76
2024/04/04 06:07:12;;;;;;;8.43;1.70;;;9.00;99.90;;;;;;5012874;28;20028;-76
2024/04/04 06:09:39;;;;;;;15.85;2.15;;;9.00;99.90;;;;;;5014637;28;20054;-76
2024/04/04 06:12:05;;;;;;;7.45;1.83;;;9.00;99.90;;;;;;5012479;28;20040;-77
2024/04/04 06:14:31;;;;;;;4.55;1.60;;;9.10;99.90;;;;;;5013261;28;20029;-76
2024/04/04 06:16:57;;;;;;;9.70;2.03;;;9.10;99.90;;;;;;5015074;28;20026;-74
2024/04/04 06:19:23;;;;;;;8.15;1.58;;;9.10;99.90;;;;;;5013196;28;20033;-76
2024/04/04 06:21:49;;;;;;;9.85;1.90;;;9.10;99.90;;;;;;5014046;28;20033;-75
2024/04/04 06:24:14;;;;;;;7.60;1.80;;;9.20;99.90;;;;;;5015018;28;20038;-76
2024/04/04 06:26:42;;;;;;;10.18;1.98;;;9.20;99.90;;;;;;5013024;28;20038;-77
2024/04/04 06:29:08;;;;;;;9.82;1.85;;;9.20;99.90;;;;;;5013661;28;20034;-75
2024/04/04 06:31:34;;;;;;;6.80;1.75;;;9.20;99.90;;;;;;5013013;28;20042;-75
2024/04/04 06:33:59;;;;;;;6.53;1.67;;;9.30;99.90;;;;;;5028778;28;20022;-77
2024/04/04 06:36:25;;;;;;;8.02;2.22;;;9.30;99.90;;;;;;5014545;28;20035;-75
2024/04/04 06:38:54;;;;;;;5.50;1.52;;;9.40;99.90;;;;;;5014611;28;20034;-75
2024/04/04 06:41:20;;;;;;;7.63;1.40;;;9.50;99.90;;;;;;5010923;28;20038;-74
2024/04/04 06:43:45;;;;;;;8.65;1.70;;;9.60;99.90;;;;;;5011909;28;20271;-79
2024/04/04 06:46:11;;;;;;;9.55;1.60;;;9.70;99.90;;;;;;5010399;28;20834;-75
2024/04/04 06:48:40;;;;;;;5.68;1.52;;;9.70;99.90;;;;;;5013907;28;20023;-77
2024/04/04 06:51:09;;;;;;;8.63;1.90;;;9.70;99.90;;;;;;5015126;28;20044;-75
2024/04/04 06:53:35;;;;;;;10.85;2.33;;;9.70;99.90;;;;;;5029799;28;20466;-75
2024/04/04 06:56:00;;;;;;;9.00;1.75;;;9.70;99.90;;;;;;5011259;28;20038;-75
2024/04/04 06:58:26;;;;;;;4.60;1.35;;;9.80;99.90;;;;;;5012292;28;20052;-76
2024/04/04 07:00:55;;;;;;;7.10;1.85;;;9.80;99.90;;;;;;5011414;28;20073;-77
2024/04/04 07:03:21;;;;;;;7.72;1.42;;;9.80;99.90;;;;;;5013849;28;20054;-78
2024/04/04 07:05:46;;;;;;;6.78;2.35;;;9.80;99.90;;;;;;5011698;28;20422;-75
2024/04/04 07:08:12;;;;;;;9.50;2.03;;;9.80;99.90;;;;;;5014862;28;20022;-76
2024/04/04 07:10:38;;;;;;;7.47;1.60;;;9.90;99.90;;;;;;5011170;28;20088;-76
2024/04/04 07:13:03;;;;;;;13.30;2.80;;;9.90;99.90;;;;;;5014040;28;20426;-76
2024/04/04 07:15:29;;;;;;;11.90;2.00;;;9.90;99.90;;;;;;5010807;28;20031;-75
2024/04/04 07:17:54;;;;;;;9.20;1.92;;;9.90;99.90;;;;;;5011666;28;20054;-76
2024/04/04 07:20:20;;;;;;;7.47;2.08;;;9.90;99.90;;;;;;5035487;28;20064;-75
2024/04/04 07:22:46;;;;;;;11.07;2.13;;;10.00;99.90;;;;;;5012526;28;20494;-76
2024/04/04 07:25:12;;;;;;;5.65;1.83;;;9.90;99.90;;;;;;5011307;28;20431;-75
2024/04/04 07:27:38;;;;;;;8.63;2.55;;;10.00;99.90;;;;;;5012039;28;20072;-74
2024/04/04 07:30:04;;;;;;;7.22;2.03;;;10.00;99.90;;;;;;5011559;28;20045;-83
2024/04/04 07:32:30;;;;;;;8.10;2.25;;;10.10;99.90;;;;;;5011315;28;20050;-78
2024/04/04 07:35:00;;;;;;;8.23;2.20;;;10.10;99.90;;;;;;5012574;28;20046;-75
2024/04/04 07:37:26;;;;;;;9.32;2.67;;;10.10;99.90;;;;;;5012658;28;20023;-77
2024/04/04 07:39:52;;;;;;;11.95;2.83;;;10.10;99.90;;;;;;5028437;28;20062;-78
2024/04/04 07:42:19;;;;;;;12.35;2.28;;;10.10;99.90;;;;;;5014309;28;20057;-79
2024/04/04 07:44:45;;;;;;;6.97;2.20;;;10.00;99.90;;;;;;5011867;28;20057;-79
2024/04/04 07:47:11;;;;;;;6.15;2.13;;;10.00;99.90;;;;;;5011967;28;20105;-79
2024/04/04 07:49:37;;;;;;;9.32;2.70;;;10.00;99.90;;;;;;5012649;28;20061;-79
2024/04/04 07:52:03;;;;;;;7.80;3.00;;;9.90;99.90;;;;;;5012390;28;20118;-78
2024/04/04 07:54:29;;;;;;;6.47;2.47;;;9.90;99.90;;;;;;5013838;28;20030;-79
2024/04/04 07:56:55;;;;;;;8.43;2.72;;;9.90;99.90;;;;;;5013036;28;20034;-77
2024/04/04 07:59:20;;;;;;;8.32;3.03;;;9.90;99.90;;;;;;5010302;28;20033;-77
2024/04/04 08:01:46;;;;;;;11.13;3.10;;;9.80;99.90;;;;;;5010984;28;20041;-77
2024/04/04 08:04:12;;;;;;;13.15;3.65;;;9.80;99.90;;;;;;5009522;28;20054;-77
2024/04/04 08:06:37;;;;;;;9.77;2.95;;;9.80;99.90;;;;;;5021754;28;20479;-77
2024/04/04 08:09:06;;;;;;;12.30;3.25;;;9.80;99.90;;;;;;5013674;28;20030;-76
2024/04/04 08:11:32;;;;;;;8.15;2.58;;;9.70;99.90;;;;;;5013501;28;20075;-77
2024/04/04 08:13:57;;;;;;;9.57;2.92;;;9.70;99.90;;;;;;5013871;28;20026;-77
2024/04/04 08:16:23;;;;;;;9.73;2.83;;;9.70;99.90;;;;;;5013015;28;20026;-82
2024/04/04 08:18:49;;;;;;;11.88;3.05;;;9.70;99.90;;;;;;5012831;28;20022;-77
2024/04/04 08:21:15;;;;;;;8.52;2.50;;;9.60;99.90;;;;;;5011457;28;20045;-76
2024/04/04 08:23:41;;;;;;;9.95;3.33;;;9.60;99.90;;;;;;5010460;28;20034;-76
2024/04/04 08:26:06;;;;;;;15.32;3.28;;;9.60;99.90;;;;;;5011136;28;20037;-74
2024/04/04 08:28:32;;;;;;;9.43;3.28;;;9.60;99.90;;;;;;5011660;28;20088;-73
2024/04/04 08:31:06;;;;;;;11.93;3.50;;;9.50;99.90;;;;;;5010304;28;20038;-74
2024/04/04 08:33:33;;;;;;;16.15;3.88;;;9.50;99.90;;;;;;5009904;28;20498;-72
2024/04/04 08:35:59;;;;;;;11.30;3.33;;;9.50;99.90;;;;;;5010838;28;20118;-73
2024/04/04 08:38:25;;;;;;;11.40;3.47;;;9.50;99.90;;;;;;5012057;28;20030;-72
2024/04/04 08:40:56;;;;;;;7.95;3.15;;;9.50;99.90;;;;;;5011055;28;20022;-73
2024/04/04 08:43:23;;;;;;;9.13;3.25;;;9.50;99.90;;;;;;5012467;28;20100;-73
2024/04/04 08:45:49;;;;;;;10.15;3.75;;;9.50;99.90;;;;;;5010348;28;20695;-72
2024/04/04 08:48:20;;;;;;;13.98;4.38;;;9.50;99.90;;;;;;5009739;28;20026;-74
2024/04/04 08:50:47;;;;;;;16.80;4.10;;;9.50;99.90;;;;;;5010030;28;20045;-73
2024/04/04 08:53:23;;;;;;;10.43;3.92;;;9.40;99.90;;;;;;5012286;28;20937;-74
2024/04/04 08:55:51;;;;;;;13.55;4.43;;;9.50;99.90;;;;;;5010885;28;20498;-74
2024/04/04 08:58:17;;;;;;;11.85;3.88;;;9.50;99.90;;;;;;5011446;28;20034;-73
2024/04/04 09:00:43;;;;;;;15.38;4.72;;;9.50;99.90;;;;;;5011203;28;20040;-72
2024/04/04 09:03:09;;;;;;;12.13;4.45;;;9.60;99.90;;;;;;5011271;28;20050;-74
2024/04/04 09:05:35;;;;;;;10.32;4.93;;;9.60;99.90;;;;;;5010584;28;20394;-74
2024/04/04 09:08:04;;;;;;;15.35;4.80;;;9.60;99.90;;;;;;5009934;28;20022;-74
2024/04/04 09:10:30;;;;;;;14.25;4.40;;;9.60;99.90;;;;;;5014245;28;20034;-74
2024/04/04 09:13:03;;;;;;;14.02;4.97;;;9.70;99.90;;;;;;5013395;28;20041;-76
2024/04/04 09:15:29;;;;;;;10.68;4.55;;;9.70;99.90;;;;;;5014086;28;20033;-74
2024/04/04 09:18:04;;;;;;;10.88;5.45;;;9.70;99.90;;;;;;5015018;28;20058;-74
2024/04/04 09:20:31;;;;;;;15.77;4.97;;;9.70;99.90;;;;;;5011892;28;20076;-74
2024/04/04 09:22:58;;;;;;;12.23;5.47;;;9.80;99.90;;;;;;5014306;28;20099;-75
2024/04/04 09:25:25;;;;;;;18.80;5.13;;;9.80;99.90;;;;;;5016094;28;20090;-74
2024/04/04 09:27:51;;;;;;;12.20;5.80;;;9.90;99.90;;;;;;5011827;28;20022;-76
2024/04/04 09:30:19;;;;;;;13.38;5.72;;;10.00;99.90;;;;;;5015432;28;20042;-72
2024/04/04 09:32:47;;;;;;;13.10;5.97;;;10.00;99.90;;;;;;5015615;28;20014;-75
2024/04/04 09:35:14;;;;;;;11.60;5.47;;;10.00;99.90;;;;;;5014196;28;20029;-75
2024/04/04 09:37:40;;;;;;;9.35;5.13;;;10.00;99.90;;;;;;5013490;28;20026;-73
2024/04/04 09:40:07;;;;;;;11.73;5.55;;;10.10;99.90;;;;;;5012950;28;20109;-74
2024/04/04 09:42:33;;;;;;;12.40;5.22;;;10.00;99.90;;;;;;5012322;28;20033;-74
2024/04/04 09:44:59;;;;;;;12.70;6.22;;;10.10;99.90;;;;;;5014134;28;20033;-74
2024/04/04 09:47:27;;;;;;;16.17;5.88;;;10.20;99.90;;;;;;5013943;28;20026;-74
2024/04/04 09:49:53;;;;;;;13.85;6.30;;;10.20;99.90;;;;;;5012530;28;20049;-77
2024/04/04 09:52:25;;;;;;;19.52;6.50;;;10.30;99.90;;;;;;5012818;28;20049;-74
2024/04/04 09:54:51;;;;;;;14.00;6.20;;;10.20;99.90;;;;;;5013192;28;20093;-76
2024/04/04 09:57:17;;;;;;;13.23;6.10;;;10.30;99.90;;;;;;5012602;28;20100;-75
2024/04/04 09:59:43;;;;;;;11.30;6.05;;;10.30;99.90;;;;;;5012656;28;20475;-74
2024/04/04 10:02:09;;;;;;;12.57;6.20;;;10.40;99.90;;;;;;5012453;28;20022;-74
2024/04/04 10:04:36;;;;;;;12.65;6.47;;;10.50;99.90;;;;;;5013017;28;20233;-73
2024/04/04 10:07:02;;;;;;;11.30;6.43;;;10.50;99.90;;;;;;5012797;28;20101;-72
2024/04/04 10:09:38;;;;;;;12.13;6.32;;;10.50;99.90;;;;;;5012402;28;20053;-76
2024/04/04 10:12:14;;;;;;;15.10;6.95;;;10.50;99.90;;;;;;5012681;28;20479;-74
2024/04/04 10:14:51;;;;;;;12.85;6.82;;;10.50;99.90;;;;;;5013620;28;20053;-74
2024/04/04 10:17:16;;;;;;;12.68;6.45;;;10.60;99.90;;;;;;5011881;28;20068;-74
2024/04/04 10:19:45;;;;;;;15.10;6.28;;;10.60;99.90;;;;;;5012823;28;20061;-73
2024/04/04 10:22:16;;;;;;;13.10;6.28;;;10.60;99.90;;;;;;5012358;28;20036;-73
2024/04/04 10:24:42;;;;;;;10.05;6.85;;;10.70;99.90;;;;;;5011764;28;20397;-73
2024/04/04 10:27:11;;;;;;;13.10;6.57;;;10.70;99.90;;;;;;5013463;28;20450;-74
2024/04/04 10:29:38;;;;;;;14.05;7.18;;;10.70;99.90;;;;;;5013074;28;20136;-75
2024/04/04 10:32:05;;;;;;;13.38;6.90;;;10.80;99.90;;;;;;5013217;28;20034;-74
2024/04/04 10:34:33;;;;;;;11.45;6.78;;;10.80;99.90;;;;;;5013990;28;20116;-75
2024/04/04 10:37:00;;;;;;;15.13;6.95;;;10.80;99.90;;;;;;5014663;28;20037;-74
2024/04/04 10:39:26;;;;;;;15.32;6.85;;;10.90;99.90;;;;;;5013554;28;20038;-74
2024/04/04 10:41:57;;;;;;;10.88;6.80;;;11.00;99.90;;;;;;5015419;28;20110;-74
2024/04/04 10:44:25;;;;;;;9.25;5.60;;;11.00;99.90;;;;;;5036042;28;20037;-75
2024/04/04 10:46:58;;;;;;;15.52;7.63;;;11.00;99.90;;;;;;5013149;28;20025;-76
2024/04/04 10:49:28;;;;;;;18.42;8.20;;;11.00;99.90;;;;;;5013165;28;20452;-75
2024/04/04 10:51:54;;;;;;;13.77;7.50;;;11.10;99.90;;;;;;5013752;28;20037;-74
2024/04/04 10:54:22;;;;;;;14.85;7.95;;;11.10;99.90;;;;;;5011459;28;20386;-75
2024/04/04 10:56:50;;;;;;;14.55;8.13;;;11.10;99.90;;;;;;5012521;28;20030;-73
2024/04/04 10:59:20;;;;;;;14.73;8.00;;;11.20;99.90;;;;;;5012649;28;20037;-75
2024/04/04 11:01:46;;;;;;;16.20;9.25;;;11.30;99.90;;;;;;5010968;28;20022;-75
2024/04/04 11:04:12;;;;;;;16.88;8.93;;;11.40;99.90;;;;;;5012002;28;20042;-75
2024/04/04 11:06:43;;;;;;;14.43;8.35;;;11.40;99.90;;;;;;5013692;28;20030;-75
2024/04/04 11:09:19;;;;;;;14.65;8.38;;;11.60;99.90;;;;;;5012102;28;20086;-76
2024/04/04 11:11:53;;;;;;;18.17;10.07;;;11.50;99.90;;;;;;5010799;28;20042;-73
2024/04/04 11:14:24;;;;;;;16.08;8.48;;;11.70;99.90;;;;;;5011878;28;20494;-74
2024/04/04 11:16:54;;;;;;;17.88;9.82;;;11.80;99.90;;;;;;5012053;28;20034;-74
2024/04/04 11:19:23;;;;;;;21.15;10.43;;;11.90;99.90;;;;;;5010826;28;20076;-74
2024/04/04 11:21:49;;;;;;;17.52;10.68;;;11.90;99.90;;;;;;5012128;28;20074;-72
2024/04/04 11:24:16;;;;;;;19.60;10.93;;;12.00;99.90;;;;;;5012057;28;20121;-72
2024/04/04 11:26:42;;;;;;;24.40;11.27;;;12.00;99.90;;;;;;5011727;28;20030;-74
2024/04/04 11:29:08;;;;;;;20.83;10.82;;;12.10;99.90;;;;;;5010310;28;20382;-71
2024/04/04 11:31:34;;;;;;;28.65;13.15;;;12.10;99.90;;;;;;5010885;28;20099;-72
2024/04/04 11:33:59;;;;;;;29.08;14.55;;;12.10;99.90;;;;;;5011560;28;20053;-74
2024/04/04 11:36:25;;;;;;;32.85;15.85;;;12.20;99.90;;;;;;5011247;28;20030;-73
2024/04/04 11:38:51;;;;;;;34.08;15.80;;;12.30;99.90;;;;;;5010580;28;20032;-72
2024/04/04 11:41:17;;;;;;;39.10;16.25;;;12.30;99.90;;;;;;5010301;28;20022;-71
2024/04/04 11:43:42;;;;;;;35.85;16.40;;;12.30;99.90;;;;;;5009499;28;20105;-70
2024/04/04 11:46:12;;;;;;;38.38;15.63;;;12.40;99.90;;;;;;5011018;28;20034;-73
2024/04/04 11:48:38;;;;;;;34.58;15.93;;;12.50;99.90;;;;;;5012405;28;20033;-70
2024/04/04 11:51:03;;;;;;;26.42;12.27;;;12.50;99.90;;;;;;5011236;28;20069;-74
2024/04/04 11:53:29;;;;;;;21.42;10.98;;;12.40;99.90;;;;;;5011025;28;20019;-73
2024/04/04 11:55:56;;;;;;;21.77;10.88;;;12.40;99.90;;;;;;5013274;28;20049;-72
2024/04/04 11:58:26;;;;;;;16.35;8.98;;;12.40;99.90;;;;;;5012853;28;20093;-73
2024/04/04 12:00:55;;;;;;;16.33;8.15;;;12.30;99.90;;;;;;5010984;28;20088;-72
2024/04/04 12:03:21;;;;;;;14.98;7.78;;;12.40;99.90;;;;;;5010451;28;20046;-73
2024/04/04 12:05:47;;;;;;;14.32;7.55;;;12.30;99.90;;;;;;5011703;28;20030;-74
2024/04/04 12:08:12;;;;;;;18.65;8.35;;;12.20;99.90;;;;;;5009796;28;20376;-74
2024/04/04 12:10:38;;;;;;;11.52;7.63;;;12.10;99.90;;;;;;5033728;28;20095;-74
2024/04/04 12:13:04;;;;;;;14.10;8.20;;;12.10;99.90;;;;;;5008741;28;20017;-74
2024/04/04 12:15:31;;;;;;;14.77;7.15;;;12.10;99.90;;;;;;5010613;28;20037;-73
2024/04/04 12:20:41;;;;;;;13.00;8.20;;;12.00;99.90;;;;;;5016029;28;20029;-72
2024/04/04 12:23:06;;;;;;;18.80;8.35;;;11.90;99.90;;;;;;5012859;28;20026;-74
2024/04/04 12:25:32;;;;;;;16.00;8.13;;;12.00;99.90;;;;;;5013047;28;20293;-72
2024/04/04 12:27:58;;;;;;;10.55;6.15;;;11.90;99.90;;;;;;5010989;28;20030;-73
2024/04/04 12:30:24;;;;;;;9.15;5.90;;;11.90;99.90;;;;;;5011639;28;20038;-70
2024/04/04 12:32:49;;;;;;;12.75;5.03;;;11.90;99.90;;;;;;5010391;28;20068;-71
2024/04/04 12:35:15;;;;;;;6.90;4.32;;;11.90;99.90;;;;;;5011719;28;20030;-70
2024/04/04 12:37:41;;;;;;;8.90;5.43;;;11.80;99.90;;;;;;5010146;28;20030;-70
2024/04/04 12:40:07;;;;;;;9.77;5.20;;;11.80;99.90;;;;;;5010335;28;20456;-72
2024/04/04 12:42:32;;;;;;;5.68;4.30;;;11.80;99.90;;;;;;5010990;28;20026;-72